»·PEaware :: N129DQ KSBP-KRNO

N129DQ :: KSBP-KRNO

FLIGHT INFORMATION

Flight Status: Arrived
Operator: Privately registered:
United States
More flights under this callsign
Pilot: Doug M. (13043)
Aircraft: MOONEY M-20 201 202 205 220 ATS MSE
(M20P)
More flights by this aircraft type
Origin: KSBP San Luis Co Regl
United States
Destination: KRNO Reno/Tahoe Intl
United States
More flights between these airports :: More routes between these airports
Route: +MOD TARVR SPOON
File this flight plan on PilotEdge
Remarks:
Altitude:
(Current/Filed)
17,000ft
Speed:
(Current/Filed)
250kts
Departed: 19-Sep-18 04:29 PM
Arrived: 19-Sep-18 05:30 PM
Distance/Time
Traveled:
259nm/1:00
Distance/Time
To Go:
Arrived

Flight Plot

Page will automatically refresh every two minutes.

Flight plan parsing failed; only flown route is shown


Map Options




Map Legend


Flown Route
Filed Route
Departure Airport
Arrival Airport
Navaid (VOR, NDB)
Fix

Horizontal Profiles

Position Reports

Time Latitude Longitude Heading Altitude Ground
Speed
19-Sep-18 16:20 35.238837 -120.641192 350 178ft 0kts
19-Sep-18 16:21 35.238837 -120.641192 350 178ft 0kts
19-Sep-18 16:22 35.238837 -120.641192 350 178ft 0kts
19-Sep-18 16:23 35.238837 -120.641192 350 178ft 0kts
19-Sep-18 16:24 35.238837 -120.641192 350 178ft 0kts
19-Sep-18 16:25 35.238837 -120.641192 350 178ft 0kts
19-Sep-18 16:26 35.238841 -120.641193 349 178ft 1kts
19-Sep-18 16:27 35.237609 -120.639525 120 178ft 6kts
19-Sep-18 16:28 35.235536 -120.635921 124 178ft 13kts
19-Sep-18 16:29 35.233532 -120.632438 142 178ft 15kts
19-Sep-18 16:30 35.232809 -120.633081 297 178ft 0kts
19-Sep-18 16:31 35.245194 -120.656170 304 876ft 156kts
19-Sep-18 16:32 35.271466 -120.701717 304 2504ft 171kts
19-Sep-18 16:33 35.299469 -120.750666 305 4512ft 180kts
19-Sep-18 16:34 35.328644 -120.801923 305 6523ft 187kts
19-Sep-18 16:35 35.362011 -120.850893 346 8522ft 196kts
19-Sep-18 16:36 35.413056 -120.822746 26 10535ft 210kts
19-Sep-18 16:37 35.464462 -120.785733 26 12548ft 220kts
19-Sep-18 16:38 35.517456 -120.746005 27 14556ft 227kts
19-Sep-18 16:39 35.571493 -120.704781 27 16564ft 233kts
19-Sep-18 16:40 35.633086 -120.657572 28 17006ft 305kts
19-Sep-18 16:41 35.716593 -120.645744 345 17001ft 322kts
19-Sep-18 16:42 35.803950 -120.670323 343 17000ft 323kts
19-Sep-18 16:43 35.893403 -120.698540 342 17000ft 340kts
19-Sep-18 16:44 35.984991 -120.728002 342 17004ft 341kts
19-Sep-18 16:45 36.076762 -120.757718 342 17028ft 341kts
19-Sep-18 16:46 36.154641 -120.783031 342 17001ft 329kts
19-Sep-18 16:47 36.242945 -120.811808 342 17001ft 328kts
19-Sep-18 16:48 36.330636 -120.840436 342 17001ft 327kts
19-Sep-18 16:49 36.418259 -120.869131 342 17064ft 326kts
19-Sep-18 16:50 36.505843 -120.897643 344 17027ft 328kts
19-Sep-18 16:51 36.595721 -120.912254 0 17027ft 334kts
19-Sep-18 16:52 36.687802 -120.909829 355 17027ft 331kts
19-Sep-18 16:53 36.779449 -120.912888 354 17026ft 331kts
19-Sep-18 16:54 36.871260 -120.917340 354 17026ft 331kts
19-Sep-18 16:55 36.962997 -120.922073 354 17026ft 330kts
19-Sep-18 16:56 37.054183 -120.926961 354 17025ft 330kts
19-Sep-18 16:57 37.145246 -120.931844 354 17001ft 330kts
19-Sep-18 16:58 37.236893 -120.936766 354 17010ft 330kts
19-Sep-18 16:59 37.328043 -120.941675 354 17009ft 329kts
19-Sep-18 17:00 37.419062 -120.946585 354 17000ft 329kts
19-Sep-18 17:01 37.510623 -120.951537 354 17000ft 329kts
19-Sep-18 17:02 37.601802 -120.956411 355 16998ft 330kts
19-Sep-18 17:03 37.683547 -120.899721 31 16999ft 344kts
19-Sep-18 17:04 37.760014 -120.827120 33 17000ft 345kts
19-Sep-18 17:05 37.835508 -120.753388 33 16999ft 343kts
19-Sep-18 17:06 37.911126 -120.678898 33 17054ft 344kts
19-Sep-18 17:07 37.986277 -120.604587 33 17181ft 343kts
19-Sep-18 17:08 38.044970 -120.546396 33 17246ft 345kts
19-Sep-18 17:09 38.120071 -120.471754 33 17259ft 344kts
19-Sep-18 17:10 38.195161 -120.396924 33 17260ft 344kts
19-Sep-18 17:11 38.269669 -120.322376 33 17027ft 342kts
19-Sep-18 17:12 38.344452 -120.247509 33 17027ft 342kts
19-Sep-18 17:13 38.419194 -120.172436 33 17027ft 344kts
19-Sep-18 17:14 38.489560 -120.101447 32 17007ft 302kts
19-Sep-18 17:15 38.557313 -120.033135 33 16829ft 315kts
19-Sep-18 17:16 38.624309 -119.965350 33 16013ft 305kts
19-Sep-18 17:17 38.690686 -119.897954 33 16008ft 306kts
19-Sep-18 17:18 38.756461 -119.830975 33 15995ft 286kts
19-Sep-18 17:19 38.821787 -119.776695 359 16001ft 275kts
19-Sep-18 17:20 38.898028 -119.772627 357 14645ft 267kts
19-Sep-18 17:21 38.971799 -119.771265 358 12986ft 264kts
19-Sep-18 17:22 39.043694 -119.770692 358 11026ft 256kts
19-Sep-18 17:23 39.113419 -119.770346 358 10918ft 257kts
19-Sep-18 17:24 39.184341 -119.770111 357 10918ft 256kts
19-Sep-18 17:25 39.252422 -119.770050 358 9829ft 235kts
19-Sep-18 17:26 39.310988 -119.769816 357 8525ft 192kts
19-Sep-18 17:27 39.358340 -119.769652 356 7367ft 143kts
19-Sep-18 17:28 39.393443 -119.769553 354 6545ft 114kts
19-Sep-18 17:29 39.422943 -119.769499 354 5871ft 105kts
19-Sep-18 17:30 39.452091 -119.769428 356 5199ft 104kts
19-Sep-18 17:31 39.479530 -119.769396 356 4556ft 93kts
19-Sep-18 17:32 39.492662 -119.770287 252 4412ft 6kts
19-Sep-18 17:33 39.492556 -119.771201 288 4412ft 12kts
19-Sep-18 17:34 39.494400 -119.773328 191 4412ft 7kts
19-Sep-18 17:35 39.494184 -119.772924 91 4412ft 0kts
19-Sep-18 17:36 39.494184 -119.772924 91 4412ft 0kts
19-Sep-18 17:37 39.494184 -119.772924 91 4412ft 0kts
19-Sep-18 17:38 39.494184 -119.772924 91 4412ft 0kts
19-Sep-18 17:39 39.494184 -119.772924 91 4412ft 0kts
19-Sep-18 17:40 39.494184 -119.772924 91 4412ft 0kts
19-Sep-18 17:41 39.494184 -119.772924 91 4412ft 0kts
19-Sep-18 17:42 39.494184 -119.772924 91 4412ft 0kts
19-Sep-18 17:43 39.494184 -119.772924 91 4412ft 0kts
19-Sep-18 17:44 39.494184 -119.772924 91 4412ft 0kts
19-Sep-18 17:45 39.494184 -119.772924 91 4412ft 0kts
19-Sep-18 17:46 39.494184 -119.772924 91 4412ft 0kts

Navigation Log

Ident Type
Flight plan parsing failed, navigation log unavailable